Time;durP1;ratioP1;P1;durP2;ratioP2;P2;SDS_P1;SDS_P2;PMS_P1;PMS_P2;Temp;Humidity;BMP_temperature;BMP_pressure;BME280_temperature;BME280_humidity;BME280_pressure;Samples;Min_cycle;Max_cycle;Signal;HPM_P1;HPM_P2
2022/08/06 00:02:24;;;;;;;18.93;17.93;;;;;;;;;;5041691;28;20459;-85
2022/08/06 00:04:53;;;;;;;19.53;18.30;;;;;;;;;;5045059;28;20421;-86
2022/08/06 00:07:24;;;;;;;19.73;18.63;;;;;;;;;;5043953;28;20778;-85
2022/08/06 00:09:51;;;;;;;18.83;17.83;;;;;;;;;;5041580;28;20464;-85
2022/08/06 00:12:22;;;;;;;19.70;18.50;;;;;;;;;;5042279;28;20421;-85
2022/08/06 00:14:49;;;;;;;19.43;18.43;;;;;;;;;;5042790;28;20504;-86
2022/08/06 00:17:20;;;;;;;20.00;19.00;;;;;;;;;;5041669;28;20935;-86
2022/08/06 00:19:47;;;;;;;19.47;18.50;;;;;;;;;;5042248;28;20474;-84
2022/08/06 00:22:15;;;;;;;20.60;19.33;;;;;;;;;;5043523;28;20462;-85
2022/08/06 00:24:42;;;;;;;19.20;18.30;;;;;;;;;;5043280;28;20419;-86
2022/08/06 00:27:10;;;;;;;20.40;19.20;;;;;;;;;;5044448;28;20890;-85
2022/08/06 00:29:38;;;;;;;19.63;18.63;;;;;;;;;;5044117;28;20434;-84
2022/08/06 00:32:06;;;;;;;19.50;18.50;;;;;;;;;;5041363;28;20447;-86
2022/08/06 00:34:35;;;;;;;20.57;19.37;;;;;;;;;;5041507;28;20427;-85
2022/08/06 00:37:03;;;;;;;19.67;18.60;;;;;;;;;;5043886;28;20423;-85
2022/08/06 00:39:31;;;;;;;19.43;18.43;;;;;;;;;;5044584;28;20475;-86
2022/08/06 00:41:58;;;;;;;19.27;18.23;;;;;;;;;;5041609;28;20512;-85
2022/08/06 00:44:26;;;;;;;20.53;19.00;;;;;;;;;;5043034;28;20463;-85
2022/08/06 00:46:53;;;;;;;19.17;18.07;;;;;;;;;;5045021;28;20422;-86
2022/08/06 00:49:21;;;;;;;19.40;18.40;;;;;;;;;;5043787;28;20403;-85
2022/08/06 00:51:50;;;;;;;19.90;18.90;;;;;;;;;;5041753;28;20447;-86
2022/08/06 00:54:17;;;;;;;19.43;18.40;;;;;;;;;;5042322;28;20475;-86
2022/08/06 00:56:45;;;;;;;19.57;18.57;;;;;;;;;;5042703;28;20483;-85
2022/08/06 00:59:12;;;;;;;20.43;19.23;;;;;;;;;;5042263;28;20949;-86
2022/08/06 01:01:40;;;;;;;19.50;18.30;;;;;;;;;;5039641;28;20453;-85
2022/08/06 01:04:08;;;;;;;19.27;18.27;;;;;;;;;;5037709;28;20451;-86
2022/08/06 01:06:35;;;;;;;19.70;18.60;;;;;;;;;;5036673;28;20889;-86
2022/08/06 01:09:05;;;;;;;21.27;19.67;;;;;;;;;;5039030;28;20425;-85
2022/08/06 01:11:33;;;;;;;19.93;18.73;;;;;;;;;;5043008;28;20483;-85
2022/08/06 01:14:00;;;;;;;18.83;17.83;;;;;;;;;;5041234;28;20423;-85
2022/08/06 01:16:33;;;;;;;20.27;19.27;;;;;;;;;;5042007;28;20484;-86
2022/08/06 01:19:03;;;;;;;20.70;19.30;;;;;;;;;;5039531;28;20477;-85
2022/08/06 01:21:51;;;;;;;19.57;18.57;;;;;;;;;;5041254;28;20461;-83
2022/08/06 01:24:37;;;;;;;19.77;18.77;;;;;;;;;;5040670;28;20411;-85
2022/08/06 01:27:18;;;;;;;19.23;18.23;;;;;;;;;;5039550;28;20537;-85
2022/08/06 01:29:48;;;;;;;19.57;18.33;;;;;;;;;;5044087;28;20446;-86
2022/08/06 01:32:18;;;;;;;19.57;18.57;;;;;;;;;;5039484;28;20937;-85
2022/08/06 01:34:50;;;;;;;19.40;18.50;;;;;;;;;;5042453;28;20452;-85
2022/08/06 01:37:22;;;;;;;19.43;18.37;;;;;;;;;;5041030;28;20448;-86
2022/08/06 01:39:54;;;;;;;18.93;17.83;;;;;;;;;;5039437;28;20418;-85
2022/08/06 01:42:24;;;;;;;19.17;18.17;;;;;;;;;;5040000;28;20498;-85
2022/08/06 01:44:53;;;;;;;20.20;19.10;;;;;;;;;;5038901;28;20428;-85
2022/08/06 01:47:22;;;;;;;20.30;19.10;;;;;;;;;;5039585;28;20463;-85
2022/08/06 01:49:52;;;;;;;18.80;17.80;;;;;;;;;;5038201;28;20439;-82
2022/08/06 01:52:21;;;;;;;18.77;17.77;;;;;;;;;;5039065;28;20439;-85
2022/08/06 01:54:52;;;;;;;19.27;18.27;;;;;;;;;;5041862;28;20810;-86
2022/08/06 01:57:20;;;;;;;19.80;18.47;;;;;;;;;;5039302;28;20430;-86
2022/08/06 01:59:51;;;;;;;18.90;17.90;;;;;;;;;;5041167;28;20439;-85
2022/08/06 02:02:21;;;;;;;19.67;18.60;;;;;;;;;;5040166;28;20483;-85
2022/08/06 02:04:51;;;;;;;19.20;18.30;;;;;;;;;;5039087;28;20460;-85
2022/08/06 02:07:21;;;;;;;20.30;19.20;;;;;;;;;;5039411;28;20792;-86
2022/08/06 02:09:50;;;;;;;19.97;18.97;;;;;;;;;;5040547;28;20432;-85
2022/08/06 02:12:21;;;;;;;21.27;19.77;;;;;;;;;;5038818;28;20963;-86
2022/08/06 02:14:53;;;;;;;20.77;19.43;;;;;;;;;;5040587;28;20484;-84
2022/08/06 02:17:23;;;;;;;19.27;18.37;;;;;;;;;;5040297;28;20441;-85
2022/08/06 02:19:52;;;;;;;20.20;18.83;;;;;;;;;;5040811;28;20441;-85
2022/08/06 02:22:20;;;;;;;20.40;19.30;;;;;;;;;;5041018;28;20913;-85
2022/08/06 02:24:48;;;;;;;19.87;18.80;;;;;;;;;;5038838;28;20419;-86
2022/08/06 02:27:19;;;;;;;20.40;19.07;;;;;;;;;;5037635;28;20843;-85
2022/08/06 02:29:47;;;;;;;20.60;19.40;;;;;;;;;;5040685;28;20824;-84
2022/08/06 02:32:17;;;;;;;20.40;19.30;;;;;;;;;;5037184;28;20462;-85
2022/08/06 02:34:45;;;;;;;20.13;19.10;;;;;;;;;;5040945;28;20852;-86
2022/08/06 02:37:14;;;;;;;19.97;18.90;;;;;;;;;;5037248;28;20408;-86
2022/08/06 02:39:46;;;;;;;19.10;18.10;;;;;;;;;;5035921;28;20431;-85
2022/08/06 02:42:16;;;;;;;20.00;18.90;;;;;;;;;;5036709;28;20475;-85
2022/08/06 02:44:46;;;;;;;20.63;19.53;;;;;;;;;;5038444;28;20438;-85
2022/08/06 02:47:18;;;;;;;20.00;18.90;;;;;;;;;;5038209;28;20915;-85
2022/08/06 02:49:47;;;;;;;19.53;18.53;;;;;;;;;;5037974;28;20414;-86
2022/08/06 02:52:17;;;;;;;19.93;18.83;;;;;;;;;;5035898;28;20429;-86
2022/08/06 02:54:49;;;;;;;19.77;18.77;;;;;;;;;;5036695;28;20866;-85
2022/08/06 02:57:19;;;;;;;19.20;18.17;;;;;;;;;;5038873;28;20463;-86
2022/08/06 02:59:48;;;;;;;19.83;18.73;;;;;;;;;;5037090;28;20419;-85
2022/08/06 03:02:19;;;;;;;19.73;18.30;;;;;;;;;;5037375;28;20459;-86
2022/08/06 03:04:49;;;;;;;19.23;18.23;;;;;;;;;;5036833;28;20451;-86
2022/08/06 03:07:17;;;;;;;19.30;18.20;;;;;;;;;;5037150;28;20929;-85
2022/08/06 03:09:47;;;;;;;20.13;19.03;;;;;;;;;;5035735;28;20486;-85
2022/08/06 03:12:15;;;;;;;19.80;18.80;;;;;;;;;;5035829;28;20421;-86
2022/08/06 03:14:43;;;;;;;19.53;18.43;;;;;;;;;;5035577;28;20434;-86
2022/08/06 03:17:13;;;;;;;20.40;19.40;;;;;;;;;;5033269;28;20451;-85
2022/08/06 03:19:42;;;;;;;19.97;18.77;;;;;;;;;;5033283;28;20995;-85
2022/08/06 03:22:10;;;;;;;20.03;18.83;;;;;;;;;;5033345;28;20483;-85
2022/08/06 03:24:39;;;;;;;19.87;18.87;;;;;;;;;;5033401;28;20444;-85
2022/08/06 03:27:06;;;;;;;19.50;18.50;;;;;;;;;;5032801;28;20533;-85
2022/08/06 03:29:34;;;;;;;21.40;19.63;;;;;;;;;;5033230;28;20511;-85
2022/08/06 03:32:02;;;;;;;20.20;19.20;;;;;;;;;;5036883;28;20442;-85
2022/08/06 03:34:30;;;;;;;20.23;19.10;;;;;;;;;;5036919;28;20452;-84
2022/08/06 03:36:59;;;;;;;20.10;19.10;;;;;;;;;;5039498;28;20435;-85
2022/08/06 03:39:27;;;;;;;20.60;19.60;;;;;;;;;;5040817;28;20433;-85
2022/08/06 03:41:55;;;;;;;20.80;19.70;;;;;;;;;;5040382;28;20475;-86
2022/08/06 03:44:22;;;;;;;20.60;19.40;;;;;;;;;;5037578;28;20412;-85
2022/08/06 03:46:53;;;;;;;21.33;20.03;;;;;;;;;;5036426;28;20451;-84
2022/08/06 03:49:23;;;;;;;20.67;19.33;;;;;;;;;;5036790;28;20426;-85
2022/08/06 03:51:52;;;;;;;20.80;19.70;;;;;;;;;;5036158;28;20421;-86
2022/08/06 03:54:28;;;;;;;19.87;18.87;;;;;;;;;;5036117;28;20559;-85
2022/08/06 03:56:56;;;;;;;20.87;19.53;;;;;;;;;;5036456;28;20439;-86
2022/08/06 03:59:24;;;;;;;20.37;19.27;;;;;;;;;;5036135;28;20431;-86
2022/08/06 04:01:52;;;;;;;21.33;19.93;;;;;;;;;;5035789;28;20467;-85
2022/08/06 04:04:20;;;;;;;20.77;19.67;;;;;;;;;;5036060;28;20429;-85
2022/08/06 04:06:48;;;;;;;20.77;19.77;;;;;;;;;;5036426;28;20551;-86
2022/08/06 04:09:16;;;;;;;21.30;20.13;;;;;;;;;;5035990;28;20507;-85
2022/08/06 04:11:45;;;;;;;20.53;19.43;;;;;;;;;;5035631;28;20414;-85
2022/08/06 04:14:14;;;;;;;20.70;19.40;;;;;;;;;;5035773;28;20967;-85
2022/08/06 04:16:42;;;;;;;21.00;19.90;;;;;;;;;;5036688;28;20418;-94
2022/08/06 04:19:11;;;;;;;20.30;19.10;;;;;;;;;;5037237;28;20486;-92
2022/08/06 04:21:40;;;;;;;21.40;20.20;;;;;;;;;;5036844;28;20444;-95
2022/08/06 04:24:07;;;;;;;21.23;19.80;;;;;;;;;;5036051;28;20426;-85
2022/08/06 04:26:35;;;;;;;19.97;18.93;;;;;;;;;;5035188;28;20466;-85
2022/08/06 04:29:05;;;;;;;20.33;19.33;;;;;;;;;;5036025;28;20413;-94
2022/08/06 04:31:33;;;;;;;19.97;18.97;;;;;;;;;;5036045;28;20941;-94
2022/08/06 04:34:01;;;;;;;20.80;19.60;;;;;;;;;;5036069;28;20456;-94
2022/08/06 04:36:29;;;;;;;20.53;19.53;;;;;;;;;;5036666;28;20787;-94
2022/08/06 04:38:56;;;;;;;21.47;20.17;;;;;;;;;;5036246;28;20413;-94
2022/08/06 04:41:24;;;;;;;20.43;19.30;;;;;;;;;;5035889;28;20436;-94
2022/08/06 04:43:51;;;;;;;20.20;19.00;;;;;;;;;;5035903;28;20541;-94
2022/08/06 04:46:21;;;;;;;20.13;19.13;;;;;;;;;;5036392;28;20435;-94
2022/08/06 04:48:48;;;;;;;20.63;19.23;;;;;;;;;;5035850;28;20432;-94
2022/08/06 04:51:16;;;;;;;19.73;18.63;;;;;;;;;;5035952;28;20436;-94
2022/08/06 04:53:43;;;;;;;20.33;19.23;;;;;;;;;;5036161;28;20410;-94
2022/08/06 04:56:11;;;;;;;20.40;19.30;;;;;;;;;;5036513;28;20457;-94
2022/08/06 04:58:38;;;;;;;20.33;19.00;;;;;;;;;;5035919;28;20485;-94
2022/08/06 05:01:06;;;;;;;20.23;19.13;;;;;;;;;;5036129;28;20417;-94
2022/08/06 05:03:35;;;;;;;20.23;19.23;;;;;;;;;;5035349;28;20462;-95
2022/08/06 05:06:05;;;;;;;20.73;19.53;;;;;;;;;;5035871;28;20411;-93
2022/08/06 05:08:33;;;;;;;21.00;19.70;;;;;;;;;;5035992;28;20443;-94
2022/08/06 05:11:04;;;;;;;20.43;19.33;;;;;;;;;;5035897;28;20427;-95
2022/08/06 05:13:33;;;;;;;21.43;20.20;;;;;;;;;;5035545;28;20428;-94
2022/08/06 05:16:02;;;;;;;20.50;19.40;;;;;;;;;;5035713;28;20431;-94
2022/08/06 05:18:31;;;;;;;19.80;18.80;;;;;;;;;;5035687;28;20942;-94
2022/08/06 05:21:01;;;;;;;20.70;19.60;;;;;;;;;;5035336;28;20443;-94
2022/08/06 05:23:31;;;;;;;20.77;19.53;;;;;;;;;;5035873;28;20506;-95
2022/08/06 05:25:58;;;;;;;21.13;19.93;;;;;;;;;;5037766;28;20415;-95
2022/08/06 05:28:26;;;;;;;21.70;20.40;;;;;;;;;;5035942;28;20483;-94
2022/08/06 05:30:54;;;;;;;22.53;21.03;;;;;;;;;;5035192;28;20464;-94
2022/08/06 05:33:25;;;;;;;22.37;20.93;;;;;;;;;;5035264;28;20490;-94
2022/08/06 05:35:53;;;;;;;22.13;20.93;;;;;;;;;;5035455;28;20444;-94
2022/08/06 05:38:23;;;;;;;22.20;21.00;;;;;;;;;;5037968;28;20500;-94
2022/08/06 05:40:51;;;;;;;21.47;20.37;;;;;;;;;;5035350;28;20440;-94
2022/08/06 05:43:18;;;;;;;21.73;20.43;;;;;;;;;;5035166;28;20491;-93
2022/08/06 05:45:46;;;;;;;22.00;20.80;;;;;;;;;;5033780;28;20423;-94
2022/08/06 05:48:14;;;;;;;22.70;21.20;;;;;;;;;;5035219;28;20444;-93
2022/08/06 05:50:45;;;;;;;22.20;20.90;;;;;;;;;;5035061;28;20438;-94
2022/08/06 05:53:14;;;;;;;22.40;21.10;;;;;;;;;;5034705;28;20421;-95
2022/08/06 05:55:46;;;;;;;22.23;20.93;;;;;;;;;;5034178;28;20800;-95
2022/08/06 05:58:15;;;;;;;22.90;21.70;;;;;;;;;;5035653;28;20464;-96
2022/08/06 06:00:43;;;;;;;21.87;20.57;;;;;;;;;;5034155;28;20419;-95
2022/08/06 06:03:12;;;;;;;21.13;20.03;;;;;;;;;;5034819;28;20462;-95
2022/08/06 06:05:40;;;;;;;21.77;20.57;;;;;;;;;;5034701;28;20429;-95
2022/08/06 06:08:08;;;;;;;21.60;20.40;;;;;;;;;;5033627;28;20479;-96
2022/08/06 06:10:36;;;;;;;22.10;20.70;;;;;;;;;;5034793;28;20419;-96
2022/08/06 06:13:06;;;;;;;21.43;20.10;;;;;;;;;;5035008;28;20802;-95
2022/08/06 06:15:35;;;;;;;20.50;19.50;;;;;;;;;;5035055;28;20933;-95
2022/08/06 06:18:09;;;;;;;21.30;20.07;;;;;;;;;;5034622;28;20443;-95
2022/08/06 06:20:51;;;;;;;21.80;20.60;;;;;;;;;;5034736;28;20444;-95
2022/08/06 06:23:20;;;;;;;20.60;19.50;;;;;;;;;;5033712;28;20974;-95
2022/08/06 06:25:50;;;;;;;20.70;19.43;;;;;;;;;;5034575;28;20423;-87
2022/08/06 06:28:24;;;;;;;20.40;19.30;;;;;;;;;;5034729;28;20470;-92
2022/08/06 06:30:56;;;;;;;22.10;20.90;;;;;;;;;;5034340;28;20421;-90
2022/08/06 06:33:26;;;;;;;21.53;20.30;;;;;;;;;;5034576;28;20407;-88
2022/08/06 06:35:56;;;;;;;20.43;19.33;;;;;;;;;;5034463;28;20448;-95
2022/08/06 06:38:30;;;;;;;21.83;20.60;;;;;;;;;;5034459;28;20562;-94
2022/08/06 06:41:02;;;;;;;21.27;19.83;;;;;;;;;;5034254;28;20529;-95
2022/08/06 06:43:34;;;;;;;20.67;19.53;;;;;;;;;;5033361;28;20492;-94
2022/08/06 06:46:04;;;;;;;20.83;19.73;;;;;;;;;;5035099;28;20406;-93
2022/08/06 06:48:35;;;;;;;20.70;19.50;;;;;;;;;;5034546;28;20429;-93
2022/08/06 06:51:05;;;;;;;20.57;19.17;;;;;;;;;;5035712;28;20742;-94
2022/08/06 06:53:36;;;;;;;20.73;19.63;;;;;;;;;;5036926;28;20441;-94
2022/08/06 06:56:03;;;;;;;21.27;20.07;;;;;;;;;;5034839;28;20442;-93
2022/08/06 06:58:33;;;;;;;20.50;19.30;;;;;;;;;;5034192;28;20826;-93
2022/08/06 07:01:03;;;;;;;21.23;19.93;;;;;;;;;;5034268;28;20468;-94
2022/08/06 07:03:33;;;;;;;20.60;19.40;;;;;;;;;;5034109;28;20468;-94
2022/08/06 07:06:01;;;;;;;19.90;18.50;;;;;;;;;;5034818;28;20446;-92
2022/08/06 07:08:30;;;;;;;18.80;17.90;;;;;;;;;;5038118;28;20411;-92
2022/08/06 07:10:58;;;;;;;19.83;18.83;;;;;;;;;;5036741;28;20479;-91
2022/08/06 07:13:26;;;;;;;19.10;17.57;;;;;;;;;;5037640;28;20448;-90
2022/08/06 07:15:54;;;;;;;18.13;17.13;;;;;;;;;;5038203;28;20451;-92
2022/08/06 07:18:23;;;;;;;18.63;17.50;;;;;;;;;;5037715;28;20406;-92
2022/08/06 07:20:51;;;;;;;17.83;16.83;;;;;;;;;;5037712;28;20793;-91
2022/08/06 07:23:18;;;;;;;18.23;17.23;;;;;;;;;;5037819;28;20466;-92
2022/08/06 07:25:48;;;;;;;18.60;17.60;;;;;;;;;;5037435;28;20502;-91
2022/08/06 07:28:16;;;;;;;19.30;18.13;;;;;;;;;;5037144;28;20551;-92
2022/08/06 07:30:43;;;;;;;18.07;16.97;;;;;;;;;;5037409;28;20431;-91
2022/08/06 07:33:12;;;;;;;18.10;17.20;;;;;;;;;;5037570;28;20453;-91
2022/08/06 07:35:43;;;;;;;18.57;17.37;;;;;;;;;;5037591;28;20988;-91
2022/08/06 07:38:12;;;;;;;18.77;17.83;;;;;;;;;;5037599;28;20403;-91
2022/08/06 07:40:42;;;;;;;19.33;18.43;;;;;;;;;;5036923;28;20412;-93
2022/08/06 07:43:12;;;;;;;19.90;18.80;;;;;;;;;;5037126;28;20473;-92
2022/08/06 07:45:39;;;;;;;20.27;19.17;;;;;;;;;;5037288;28;20465;-91
2022/08/06 07:48:09;;;;;;;20.07;18.87;;;;;;;;;;5037276;28;20408;-92
2022/08/06 07:50:37;;;;;;;20.70;19.53;;;;;;;;;;5037243;28;20417;-92
2022/08/06 07:53:06;;;;;;;20.30;19.23;;;;;;;;;;5037471;28;20412;-92
2022/08/06 07:55:34;;;;;;;20.53;19.10;;;;;;;;;;5038237;28;20441;-92
2022/08/06 07:58:03;;;;;;;20.63;19.47;;;;;;;;;;5037690;28;20411;-92
2022/08/06 08:00:31;;;;;;;20.27;19.07;;;;;;;;;;5037295;28;20446;-92
2022/08/06 08:08:31;;;;;;;20.23;19.23;;;;;;;;;;5036867;28;20426;-92
2022/08/06 08:10:59;;;;;;;20.37;19.20;;;;;;;;;;5037027;28;20450;-91
2022/08/06 08:13:27;;;;;;;20.47;19.47;;;;;;;;;;5035379;28;20951;-93
2022/08/06 08:15:56;;;;;;;21.50;20.20;;;;;;;;;;5036292;28;20409;-92
2022/08/06 08:18:30;;;;;;;20.17;19.17;;;;;;;;;;5036693;28;20444;-92
2022/08/06 08:20:58;;;;;;;20.77;19.57;;;;;;;;;;5036672;28;20449;-93
2022/08/06 08:23:26;;;;;;;20.43;19.33;;;;;;;;;;5037130;28;20486;-92
2022/08/06 08:25:56;;;;;;;20.30;19.10;;;;;;;;;;5036337;28;20426;-93
2022/08/06 08:28:23;;;;;;;20.87;19.67;;;;;;;;;;5036169;28;20842;-92
2022/08/06 08:30:51;;;;;;;21.67;20.23;;;;;;;;;;5036191;28;20438;-93
2022/08/06 08:33:19;;;;;;;22.80;21.30;;;;;;;;;;5036446;28;20474;-93
2022/08/06 08:35:46;;;;;;;21.17;20.07;;;;;;;;;;5036581;28;20420;-83
2022/08/06 08:38:14;;;;;;;22.20;20.87;;;;;;;;;;5035173;28;20469;-88
2022/08/06 08:40:42;;;;;;;21.00;19.90;;;;;;;;;;5036106;28;20440;-92
2022/08/06 08:43:13;;;;;;;21.03;20.03;;;;;;;;;;5036195;28;20480;-90
2022/08/06 08:45:41;;;;;;;22.70;21.60;;;;;;;;;;5036215;28;20445;-90
2022/08/06 08:48:08;;;;;;;21.73;20.57;;;;;;;;;;5036204;28;20440;-90
2022/08/06 08:50:37;;;;;;;21.83;20.73;;;;;;;;;;5036685;28;20442;-90
2022/08/06 08:53:07;;;;;;;21.30;20.20;;;;;;;;;;5036047;28;20444;-90
2022/08/06 08:55:35;;;;;;;19.70;18.70;;;;;;;;;;5036451;28;20453;-90
2022/08/06 08:58:03;;;;;;;20.60;19.50;;;;;;;;;;5039027;28;20457;-93
2022/08/06 09:00:32;;;;;;;20.43;19.23;;;;;;;;;;5034980;28;20408;-81
2022/08/06 09:03:00;;;;;;;21.10;20.00;;;;;;;;;;5035477;28;20424;-91
2022/08/06 09:05:27;;;;;;;20.63;19.53;;;;;;;;;;5035828;28;20451;-89
2022/08/06 09:07:55;;;;;;;21.03;19.83;;;;;;;;;;5035845;28;20445;-89
2022/08/06 09:10:24;;;;;;;20.90;19.70;;;;;;;;;;5035699;28;20445;-88
2022/08/06 09:12:51;;;;;;;21.00;19.90;;;;;;;;;;5037520;28;20878;-89
2022/08/06 09:15:19;;;;;;;20.77;19.63;;;;;;;;;;5036372;28;20895;-89
2022/08/06 09:17:49;;;;;;;20.40;19.30;;;;;;;;;;5034427;28;20422;-89
2022/08/06 09:20:16;;;;;;;20.97;19.87;;;;;;;;;;5035059;28;20414;-89
2022/08/06 09:22:49;;;;;;;21.30;20.20;;;;;;;;;;5034922;28;20428;-88
2022/08/06 09:25:31;;;;;;;21.00;19.90;;;;;;;;;;5034670;28;20463;-88
2022/08/06 09:27:58;;;;;;;21.97;20.87;;;;;;;;;;5034023;28;20490;-89
2022/08/06 09:30:26;;;;;;;22.53;21.23;;;;;;;;;;5035282;28;20846;-88
2022/08/06 09:32:56;;;;;;;21.43;20.33;;;;;;;;;;5035508;28;20448;-88
2022/08/06 09:35:25;;;;;;;20.93;19.83;;;;;;;;;;5036339;28;20449;-89
2022/08/06 09:38:01;;;;;;;22.70;21.50;;;;;;;;;;5035837;28;20419;-89
2022/08/06 09:40:29;;;;;;;22.90;21.60;;;;;;;;;;5035897;28;20455;-88
2022/08/06 09:42:56;;;;;;;21.77;20.57;;;;;;;;;;5036157;28;20444;-88
2022/08/06 09:45:24;;;;;;;21.93;20.73;;;;;;;;;;5037234;28;20489;-88
2022/08/06 09:48:03;;;;;;;22.43;21.13;;;;;;;;;;5037403;28;20403;-88
2022/08/06 09:50:39;;;;;;;21.73;20.53;;;;;;;;;;5036737;28;20795;-88
2022/08/06 09:53:06;;;;;;;22.93;21.60;;;;;;;;;;5036454;28;20444;-88
2022/08/06 09:55:34;;;;;;;22.60;21.30;;;;;;;;;;5035125;28;20499;-88
2022/08/06 09:58:01;;;;;;;21.33;20.13;;;;;;;;;;5035401;28;20470;-87
2022/08/06 10:00:30;;;;;;;21.60;20.40;;;;;;;;;;5036317;28;20851;-87
2022/08/06 10:02:58;;;;;;;22.53;21.33;;;;;;;;;;5035754;28;20439;-88
2022/08/06 10:05:26;;;;;;;21.60;20.30;;;;;;;;;;5037878;28;20520;-88
2022/08/06 10:08:06;;;;;;;22.40;21.00;;;;;;;;;;5041515;28;20767;-87
2022/08/06 10:10:43;;;;;;;22.23;20.93;;;;;;;;;;5036510;28;20419;-88
2022/08/06 10:13:15;;;;;;;22.00;20.73;;;;;;;;;;5034485;28;20524;-88
2022/08/06 10:15:44;;;;;;;21.70;20.50;;;;;;;;;;5035536;28;20538;-87
2022/08/06 10:18:12;;;;;;;22.20;20.90;;;;;;;;;;5035690;28;20503;-87
2022/08/06 10:21:00;;;;;;;21.63;20.43;;;;;;;;;;5034642;28;20424;-88
2022/08/06 10:23:29;;;;;;;22.97;21.67;;;;;;;;;;5035580;28;20854;-87
2022/08/06 10:25:57;;;;;;;21.27;20.17;;;;;;;;;;5036244;28;20407;-90
2022/08/06 10:28:26;;;;;;;22.57;21.17;;;;;;;;;;5038719;28;20461;-87
2022/08/06 10:30:54;;;;;;;21.83;20.63;;;;;;;;;;5038781;28;20771;-89
2022/08/06 10:33:22;;;;;;;22.40;21.20;;;;;;;;;;5037883;28;20434;-87
2022/08/06 10:35:51;;;;;;;20.93;19.80;;;;;;;;;;5036716;28;20998;-86
2022/08/06 10:38:22;;;;;;;23.50;21.77;;;;;;;;;;5038295;28;20410;-88
2022/08/06 10:40:53;;;;;;;21.23;20.13;;;;;;;;;;5037978;28;20457;-88
2022/08/06 10:43:22;;;;;;;21.50;20.30;;;;;;;;;;5039953;28;20404;-88
2022/08/06 10:45:50;;;;;;;21.40;20.20;;;;;;;;;;5040117;28;20522;-87
2022/08/06 10:48:17;;;;;;;20.90;19.80;;;;;;;;;;5042843;28;20924;-89
2022/08/06 10:50:45;;;;;;;24.20;22.60;;;;;;;;;;5039859;28;20797;-88
2022/08/06 10:53:13;;;;;;;22.90;21.70;;;;;;;;;;5042446;28;20416;-88
2022/08/06 10:55:41;;;;;;;21.80;20.70;;;;;;;;;;5039499;28;20460;-88
2022/08/06 10:58:10;;;;;;;22.50;21.30;;;;;;;;;;5039062;28;20774;-86
2022/08/06 11:00:39;;;;;;;20.93;19.73;;;;;;;;;;5043152;28;20415;-88
2022/08/06 11:03:14;;;;;;;21.17;19.97;;;;;;;;;;5041086;28;20422;-88
2022/08/06 11:05:42;;;;;;;21.00;19.80;;;;;;;;;;5038526;28;20477;-88
2022/08/06 11:08:23;;;;;;;20.77;19.70;;;;;;;;;;5038696;28;20439;-87
2022/08/06 11:11:06;;;;;;;22.70;21.27;;;;;;;;;;5038209;28;20420;-87
2022/08/06 11:13:36;;;;;;;22.67;21.37;;;;;;;;;;5037470;28;20432;-87
2022/08/06 11:16:03;;;;;;;22.50;21.20;;;;;;;;;;5037641;28;20420;-89
2022/08/06 11:18:31;;;;;;;22.50;21.20;;;;;;;;;;5038084;28;20417;-90
2022/08/06 11:21:01;;;;;;;22.93;21.47;;;;;;;;;;5039962;28;20440;-87
2022/08/06 11:23:30;;;;;;;21.60;20.40;;;;;;;;;;5038075;28;20457;-88
2022/08/06 11:25:58;;;;;;;20.90;19.80;;;;;;;;;;5039100;28;20838;-87
2022/08/06 11:28:44;;;;;;;21.50;20.30;;;;;;;;;;5039323;28;20449;-88
2022/08/06 11:31:30;;;;;;;21.90;20.50;;;;;;;;;;5038439;28;20420;-88
2022/08/06 11:34:02;;;;;;;22.20;21.00;;;;;;;;;;5038561;28;20523;-89
2022/08/06 11:36:30;;;;;;;21.67;20.47;;;;;;;;;;5037806;28;20436;-87
2022/08/06 11:39:00;;;;;;;20.90;19.70;;;;;;;;;;5038041;28;20449;-88
2022/08/06 11:41:28;;;;;;;21.47;20.23;;;;;;;;;;5038093;28;20489;-89
2022/08/06 11:44:06;;;;;;;21.70;20.50;;;;;;;;;;5037130;28;20419;-89
2022/08/06 11:46:35;;;;;;;21.53;20.27;;;;;;;;;;5037831;28;20472;-88
2022/08/06 11:49:19;;;;;;;21.30;20.00;;;;;;;;;;5037367;28;20790;-88
2022/08/06 11:51:48;;;;;;;20.80;19.70;;;;;;;;;;5037121;28;20422;-88
2022/08/06 11:54:16;;;;;;;20.57;19.47;;;;;;;;;;5038804;28;20473;-87
2022/08/06 11:57:04;;;;;;;20.43;19.33;;;;;;;;;;5037905;28;20466;-88
2022/08/06 11:59:32;;;;;;;21.40;20.30;;;;;;;;;;5037244;28;20883;-88
2022/08/06 12:02:02;;;;;;;21.77;20.57;;;;;;;;;;5037966;28;20434;-88
2022/08/06 12:04:42;;;;;;;21.27;20.17;;;;;;;;;;5037101;28;20478;-88
2022/08/06 12:07:16;;;;;;;20.93;19.83;;;;;;;;;;5036923;28;20446;-88
2022/08/06 12:09:44;;;;;;;21.03;19.93;;;;;;;;;;5035614;28;20420;-88
2022/08/06 12:12:30;;;;;;;21.50;20.27;;;;;;;;;;5036721;28;20424;-88
2022/08/06 12:14:58;;;;;;;21.57;20.47;;;;;;;;;;5036219;28;20492;-89
2022/08/06 12:17:28;;;;;;;21.27;20.17;;;;;;;;;;5036412;28;20438;-87
2022/08/06 12:19:57;;;;;;;20.80;19.70;;;;;;;;;;5036721;28;20469;-89
2022/08/06 12:22:25;;;;;;;21.63;20.43;;;;;;;;;;5037312;28;20507;-89
2022/08/06 12:24:54;;;;;;;22.93;21.43;;;;;;;;;;5037932;28;20581;-89
2022/08/06 12:27:21;;;;;;;22.53;21.13;;;;;;;;;;5042670;28;20489;-89
2022/08/06 12:29:49;;;;;;;21.77;20.57;;;;;;;;;;5041913;28;20445;-89
2022/08/06 12:32:23;;;;;;;21.30;20.10;;;;;;;;;;5038669;28;20441;-89
2022/08/06 12:34:53;;;;;;;21.97;20.77;;;;;;;;;;5038061;28;20420;-89
2022/08/06 12:37:20;;;;;;;21.30;20.10;;;;;;;;;;5037221;28;20436;-87
2022/08/06 12:42:34;;;;;;;21.67;20.37;;;;;;;;;;5039051;28;20455;-89
2022/08/06 12:45:01;;;;;;;21.63;20.40;;;;;;;;;;5038716;28;20461;-88
2022/08/06 12:47:29;;;;;;;20.47;19.33;;;;;;;;;;5042982;28;20515;-89
2022/08/06 12:49:58;;;;;;;21.77;20.50;;;;;;;;;;5037356;28;20478;-89
2022/08/06 12:52:25;;;;;;;20.70;19.60;;;;;;;;;;5037451;28;20440;-89
2022/08/06 12:54:53;;;;;;;21.60;20.50;;;;;;;;;;5035944;28;20477;-89
2022/08/06 12:57:23;;;;;;;22.30;21.13;;;;;;;;;;5034860;28;20446;-89
2022/08/06 12:59:51;;;;;;;21.20;20.03;;;;;;;;;;5036436;28;20423;-88
2022/08/06 13:02:19;;;;;;;20.80;19.70;;;;;;;;;;5036033;28;20443;-89
2022/08/06 13:04:54;;;;;;;21.03;19.73;;;;;;;;;;5035343;28;20461;-88
2022/08/06 13:07:23;;;;;;;21.87;20.67;;;;;;;;;;5035549;28;20434;-89
2022/08/06 13:09:50;;;;;;;21.90;20.70;;;;;;;;;;5035442;28;20430;-88
2022/08/06 13:12:19;;;;;;;21.20;19.97;;;;;;;;;;5035586;28;20895;-87
2022/08/06 13:14:50;;;;;;;22.33;21.00;;;;;;;;;;5035556;28;20459;-86
2022/08/06 13:17:17;;;;;;;22.23;20.73;;;;;;;;;;5034274;28;20944;-87
2022/08/06 13:19:54;;;;;;;21.10;19.80;;;;;;;;;;5035547;28;20461;-86
2022/08/06 13:22:24;;;;;;;21.23;19.97;;;;;;;;;;5036006;28;20466;-87
2022/08/06 13:25:07;;;;;;;20.97;19.77;;;;;;;;;;5036358;28;20475;-88
2022/08/06 13:27:36;;;;;;;20.97;19.77;;;;;;;;;;5036086;28;20969;-87
2022/08/06 13:30:05;;;;;;;21.93;20.73;;;;;;;;;;5036484;28;20421;-86
2022/08/06 13:32:32;;;;;;;20.93;19.73;;;;;;;;;;5035337;28;20414;-87
2022/08/06 13:35:01;;;;;;;21.37;20.17;;;;;;;;;;5034698;28;20451;-87
2022/08/06 13:37:47;;;;;;;21.10;19.80;;;;;;;;;;5035346;28;20485;-87
2022/08/06 13:40:15;;;;;;;21.07;19.87;;;;;;;;;;5036648;28;20413;-87
2022/08/06 13:42:49;;;;;;;21.20;20.00;;;;;;;;;;5034783;28;20441;-88
2022/08/06 13:45:21;;;;;;;21.30;20.10;;;;;;;;;;5034737;28;20504;-88
2022/08/06 13:47:51;;;;;;;20.73;19.53;;;;;;;;;;5035123;28;20850;-87
2022/08/06 13:50:19;;;;;;;20.73;19.53;;;;;;;;;;5034618;28;20471;-86
2022/08/06 13:52:48;;;;;;;20.67;19.43;;;;;;;;;;5034634;28;20414;-87
2022/08/06 13:55:23;;;;;;;20.37;19.27;;;;;;;;;;5034438;28;20486;-88
2022/08/06 13:57:51;;;;;;;21.53;20.33;;;;;;;;;;5032955;28;20467;-84
2022/08/06 14:00:18;;;;;;;21.00;19.90;;;;;;;;;;5034197;28;20599;-85
2022/08/06 14:02:46;;;;;;;21.50;20.00;;;;;;;;;;5033832;28;20440;-84
2022/08/06 14:05:13;;;;;;;20.10;19.00;;;;;;;;;;5033772;28;20829;-84
2022/08/06 14:07:40;;;;;;;20.73;19.33;;;;;;;;;;5033834;28;20450;-84
2022/08/06 14:10:10;;;;;;;20.57;19.40;;;;;;;;;;5034043;28;20465;-84
2022/08/06 14:12:38;;;;;;;22.60;21.30;;;;;;;;;;5033856;28;20439;-85
2022/08/06 14:15:06;;;;;;;21.33;20.03;;;;;;;;;;5036057;28;20468;-84
2022/08/06 14:17:33;;;;;;;21.60;20.50;;;;;;;;;;5034286;28;20493;-84
2022/08/06 14:20:01;;;;;;;20.67;19.57;;;;;;;;;;5035049;28;20410;-86
2022/08/06 14:22:28;;;;;;;20.80;19.70;;;;;;;;;;5036380;28;20435;-84
2022/08/06 14:24:56;;;;;;;21.40;20.10;;;;;;;;;;5034167;28;20421;-84
2022/08/06 14:27:25;;;;;;;20.97;19.87;;;;;;;;;;5044779;28;20490;-85
2022/08/06 14:29:53;;;;;;;21.37;20.17;;;;;;;;;;5048502;28;20493;-89
2022/08/06 14:32:20;;;;;;;21.10;20.00;;;;;;;;;;5049750;28;20406;-85
2022/08/06 14:34:48;;;;;;;20.27;19.00;;;;;;;;;;5052774;28;20442;-87
2022/08/06 14:37:15;;;;;;;21.77;20.47;;;;;;;;;;5036998;28;20903;-87
2022/08/06 14:39:42;;;;;;;21.17;20.07;;;;;;;;;;5035890;28;20413;-87